PWSweather.com
Personal Weather Stations
Station Observations
WX62612
Sturbridge, MA

Sturbridge, MA

Lat: 42.131, Lon: -72.093

Elevation: 715

Station Type:

High Low Average
Temperature 40.6°F4.8°C 32.0°F0.0°C 35.9°F2.2°C
Dew Point 37.2°F2.9°C 27.9°F-2.3°C 33.1°F0.6°C
Winds 3.8 mph 6.1 kmh Calm Calm 1.0 mph ESE1.6 kmh ESE
Wind Gusts 10.5 mph16.9 kmh -- 3.0 mph4.8 kmh
Humidity 99% 83% 90%
Pressure 30.06 in1017.9 mb 29.64 in1003.7 mb -
Precipitation 0.00 in0.0 mm - -
Hour Temp Dew Point Humidity Winds Wind Gusts Pressure Precip Precip Rate Daily Precip Total
12:00 AM 32.0°F0.0°C 28.0°F-2.2°C 85% 2.0 mph NE3.2 kmh NE 4.7 mph7.6 kmh 30.06 in1017.9 mb 0.00 in0.0 mm 0.00 in0.0 mm 0.00 in0.0 mm
12:06 AM 32.2°F0.1°C 28.2°F-2.1°C 85% 0.9 mph ENE1.4 kmh ENE 1.8 mph2.9 kmh 30.06 in1017.9 mb 0.00 in0.0 mm 0.00 in0.0 mm 0.00 in0.0 mm
12:10 AM 32.2°F0.1°C 28.2°F-2.1°C 85% 1.3 mph NE2.1 kmh NE 3.4 mph5.5 kmh 30.06 in1017.9 mb 0.00 in0.0 mm 0.00 in0.0 mm 0.00 in0.0 mm
12:16 AM 32.0°F0.0°C 28.0°F-2.2°C 85% 1.3 mph ENE2.1 kmh ENE 2.5 mph4.0 kmh 30.05 in1017.6 mb 0.00 in0.0 mm 0.00 in0.0 mm 0.00 in0.0 mm
12:20 AM 32.2°F0.1°C 28.2°F-2.1°C 85% 0.9 mph NE1.4 kmh NE 2.5 mph4.0 kmh 30.05 in1017.6 mb 0.00 in0.0 mm 0.00 in0.0 mm 0.00 in0.0 mm
12:26 AM 32.4°F0.2°C 28.4°F-2.0°C 85% 0.4 mph ENE0.6 kmh ENE 2.2 mph3.5 kmh 30.05 in1017.6 mb 0.00 in0.0 mm 0.00 in0.0 mm 0.00 in0.0 mm
12:30 AM 32.4°F0.2°C 28.4°F-2.0°C 85% 0.7 mph ENE1.1 kmh ENE 2.7 mph4.3 kmh 30.05 in1017.6 mb 0.00 in0.0 mm 0.00 in0.0 mm 0.00 in0.0 mm
12:36 AM 32.2°F0.1°C 28.2°F-2.1°C 85% 0.9 mph NE1.4 kmh NE 2.2 mph3.5 kmh 30.05 in1017.6 mb 0.00 in0.0 mm 0.00 in0.0 mm 0.00 in0.0 mm
12:40 AM 32.0°F0.0°C 28.0°F-2.2°C 85% 0.4 mph ENE0.6 kmh ENE 1.8 mph2.9 kmh 30.04 in1017.3 mb 0.00 in0.0 mm 0.00 in0.0 mm 0.00 in0.0 mm
12:46 AM 32.2°F0.1°C 28.2°F-2.1°C 85% 1.3 mph N2.1 kmh N 2.7 mph4.3 kmh 30.04 in1017.3 mb 0.00 in0.0 mm 0.00 in0.0 mm 0.00 in0.0 mm
12:50 AM 32.2°F0.1°C 28.2°F-2.1°C 85% 1.3 mph NE2.1 kmh NE 2.7 mph4.3 kmh 30.04 in1017.3 mb 0.00 in0.0 mm 0.00 in0.0 mm 0.00 in0.0 mm
12:56 AM 32.2°F0.1°C 28.2°F-2.1°C 85% 0.4 mph NE0.6 kmh NE 1.6 mph2.6 kmh 30.04 in1017.3 mb 0.00 in0.0 mm 0.00 in0.0 mm 0.00 in0.0 mm
01:00 AM 32.2°F0.1°C 28.2°F-2.1°C 85% 1.8 mph NNE2.9 kmh NNE 3.4 mph5.5 kmh 30.04 in1017.3 mb 0.00 in0.0 mm 0.00 in0.0 mm 0.00 in0.0 mm
01:06 AM 32.2°F0.1°C 28.2°F-2.1°C 85% Calm Calm 0.9 mph1.4 kmh 30.04 in1017.3 mb 0.00 in0.0 mm 0.00 in0.0 mm 0.00 in0.0 mm
01:10 AM 32.2°F0.1°C 28.2°F-2.1°C 85% 1.1 mph NNE1.8 kmh NNE 2.7 mph4.3 kmh 30.03 in1016.9 mb 0.00 in0.0 mm 0.00 in0.0 mm 0.00 in0.0 mm
01:16 AM 32.2°F0.1°C 28.2°F-2.1°C 85% Calm Calm -- 30.03 in1016.9 mb 0.00 in0.0 mm 0.00 in0.0 mm 0.00 in0.0 mm
01:20 AM 32.2°F0.1°C 28.2°F-2.1°C 85% 0.2 mph NE0.3 kmh NE 1.6 mph2.6 kmh 30.03 in1016.9 mb 0.00 in0.0 mm 0.00 in0.0 mm 0.00 in0.0 mm
01:26 AM 32.2°F0.1°C 27.9°F-2.3°C 84% 0.2 mph NNE0.3 kmh NNE 1.6 mph2.6 kmh 30.03 in1016.9 mb 0.00 in0.0 mm 0.00 in0.0 mm 0.00 in0.0 mm
01:30 AM 32.2°F0.1°C 28.2°F-2.1°C 85% 0.9 mph N1.4 kmh N 2.2 mph3.5 kmh 30.03 in1016.9 mb 0.00 in0.0 mm 0.00 in0.0 mm 0.00 in0.0 mm
01:36 AM 32.4°F0.2°C 28.0°F-2.2°C 84% 0.7 mph NE1.1 kmh NE 2.0 mph3.2 kmh 30.02 in1016.6 mb 0.00 in0.0 mm 0.00 in0.0 mm 0.00 in0.0 mm
01:40 AM 32.2°F0.1°C 27.9°F-2.3°C 84% 1.6 mph NNW2.6 kmh NNW 3.1 mph5.0 kmh 30.02 in1016.6 mb 0.00 in0.0 mm 0.00 in0.0 mm 0.00 in0.0 mm
01:46 AM 32.2°F0.1°C 27.9°F-2.3°C 84% 0.9 mph N1.4 kmh N 2.0 mph3.2 kmh 30.01 in1016.3 mb 0.00 in0.0 mm 0.00 in0.0 mm 0.00 in0.0 mm
01:50 AM 32.2°F0.1°C 27.9°F-2.3°C 84% 1.3 mph NE2.1 kmh NE 2.0 mph3.2 kmh 30.01 in1016.3 mb 0.00 in0.0 mm 0.00 in0.0 mm 0.00 in0.0 mm
01:56 AM 32.2°F0.1°C 27.9°F-2.3°C 84% Calm Calm 1.1 mph1.8 kmh 30.01 in1016.3 mb 0.00 in0.0 mm 0.00 in0.0 mm 0.00 in0.0 mm
02:00 AM 32.2°F0.1°C 27.9°F-2.3°C 84% 2.5 mph NE4.0 kmh NE 4.0 mph6.4 kmh 30.00 in1015.9 mb 0.00 in0.0 mm 0.00 in0.0 mm 0.00 in0.0 mm
02:06 AM 32.2°F0.1°C 27.9°F-2.3°C 84% 0.4 mph NE0.6 kmh NE 1.8 mph2.9 kmh 30.00 in1015.9 mb 0.00 in0.0 mm 0.00 in0.0 mm 0.00 in0.0 mm
02:10 AM 32.2°F0.1°C 27.9°F-2.3°C 84% Calm Calm -- 30.00 in1015.9 mb 0.00 in0.0 mm 0.00 in0.0 mm 0.00 in0.0 mm
02:16 AM 32.2°F0.1°C 27.9°F-2.3°C 84% 1.3 mph NNE2.1 kmh NNE 2.7 mph4.3 kmh 30.00 in1015.9 mb 0.00 in0.0 mm 0.00 in0.0 mm 0.00 in0.0 mm
02:20 AM 32.4°F0.2°C 28.0°F-2.2°C 84% Calm Calm -- 30.00 in1015.9 mb 0.00 in0.0 mm 0.00 in0.0 mm 0.00 in0.0 mm
02:26 AM 32.4°F0.2°C 28.0°F-2.2°C 84% 0.9 mph ENE1.4 kmh ENE 2.2 mph3.5 kmh 29.99 in1015.6 mb 0.00 in0.0 mm 0.00 in0.0 mm 0.00 in0.0 mm
02:30 AM 32.2°F0.1°C 27.9°F-2.3°C 84% Calm Calm -- 29.99 in1015.6 mb 0.00 in0.0 mm 0.00 in0.0 mm 0.00 in0.0 mm
02:36 AM 32.4°F0.2°C 28.0°F-2.2°C 84% 0.9 mph NNE1.4 kmh NNE 3.4 mph5.5 kmh 29.99 in1015.6 mb 0.00 in0.0 mm 0.00 in0.0 mm 0.00 in0.0 mm
02:40 AM 32.2°F0.1°C 27.9°F-2.3°C 84% 1.1 mph ENE1.8 kmh ENE 2.7 mph4.3 kmh 29.99 in1015.6 mb 0.00 in0.0 mm 0.00 in0.0 mm 0.00 in0.0 mm
02:46 AM 32.4°F0.2°C 28.0°F-2.2°C 84% 0.2 mph N0.3 kmh N 1.6 mph2.6 kmh 29.98 in1015.2 mb 0.00 in0.0 mm 0.00 in0.0 mm 0.00 in0.0 mm
02:50 AM 32.4°F0.2°C 27.9°F-2.3°C 83% 0.4 mph 0.6 kmh 1.3 mph2.1 kmh 29.98 in1015.2 mb 0.00 in0.0 mm 0.00 in0.0 mm 0.00 in0.0 mm
02:56 AM 32.4°F0.2°C 27.9°F-2.3°C 83% 0.9 mph 1.4 kmh 1.8 mph2.9 kmh 29.98 in1015.2 mb 0.00 in0.0 mm 0.00 in0.0 mm 0.00 in0.0 mm
03:00 AM 32.4°F0.2°C 28.0°F-2.2°C 84% 0.9 mph NE1.4 kmh NE 1.8 mph2.9 kmh 29.98 in1015.2 mb 0.00 in0.0 mm 0.00 in0.0 mm 0.00 in0.0 mm
03:06 AM 32.4°F0.2°C 28.0°F-2.2°C 84% Calm Calm -- 29.98 in1015.2 mb 0.00 in0.0 mm 0.00 in0.0 mm 0.00 in0.0 mm
03:10 AM 32.4°F0.2°C 28.0°F-2.2°C 84% 2.2 mph NE3.5 kmh NE 2.9 mph4.7 kmh 29.98 in1015.2 mb 0.00 in0.0 mm 0.00 in0.0 mm 0.00 in0.0 mm
03:16 AM 32.5°F0.3°C 28.0°F-2.2°C 83% 1.1 mph NE1.8 kmh NE 1.8 mph2.9 kmh 29.98 in1015.2 mb 0.00 in0.0 mm 0.00 in0.0 mm 0.00 in0.0 mm
03:20 AM 32.4°F0.2°C 28.0°F-2.2°C 84% 1.8 mph N2.9 kmh N 6.3 mph10.1 kmh 29.98 in1015.2 mb 0.00 in0.0 mm 0.00 in0.0 mm 0.00 in0.0 mm
03:26 AM 32.4°F0.2°C 28.0°F-2.2°C 84% 0.7 mph NE1.1 kmh NE 2.0 mph3.2 kmh 29.97 in1014.9 mb 0.00 in0.0 mm 0.00 in0.0 mm 0.00 in0.0 mm
03:30 AM 32.7°F0.4°C 28.4°F-2.0°C 84% 1.1 mph ENE1.8 kmh ENE 3.8 mph6.1 kmh 29.97 in1014.9 mb 0.00 in0.0 mm 0.00 in0.0 mm 0.00 in0.0 mm
03:36 AM 32.5°F0.3°C 28.2°F-2.1°C 84% 2.5 mph ENE4.0 kmh ENE 5.8 mph9.3 kmh 29.96 in1014.6 mb 0.00 in0.0 mm 0.00 in0.0 mm 0.00 in0.0 mm
03:40 AM 32.4°F0.2°C 27.9°F-2.3°C 83% 1.8 mph NE2.9 kmh NE 3.4 mph5.5 kmh 29.96 in1014.6 mb 0.00 in0.0 mm 0.00 in0.0 mm 0.00 in0.0 mm
03:46 AM 32.5°F0.3°C 28.0°F-2.2°C 83% 1.3 mph ENE2.1 kmh ENE 3.6 mph5.8 kmh 29.96 in1014.6 mb 0.00 in0.0 mm 0.00 in0.0 mm 0.00 in0.0 mm
03:50 AM 32.5°F0.3°C 28.0°F-2.2°C 83% 1.6 mph NNE2.6 kmh NNE 4.3 mph6.9 kmh 29.96 in1014.6 mb 0.00 in0.0 mm 0.00 in0.0 mm 0.00 in0.0 mm
03:56 AM 32.5°F0.3°C 28.0°F-2.2°C 83% 1.1 mph NE1.8 kmh NE 2.5 mph4.0 kmh 29.96 in1014.6 mb 0.00 in0.0 mm 0.00 in0.0 mm 0.00 in0.0 mm
04:00 AM 32.4°F0.2°C 27.9°F-2.3°C 83% 1.6 mph N2.6 kmh N 4.3 mph6.9 kmh 29.96 in1014.6 mb 0.00 in0.0 mm 0.00 in0.0 mm 0.00 in0.0 mm
04:06 AM 32.4°F0.2°C 27.9°F-2.3°C 83% 0.9 mph W1.4 kmh W 3.1 mph5.0 kmh 29.96 in1014.6 mb 0.00 in0.0 mm 0.00 in0.0 mm 0.00 in0.0 mm
04:10 AM 32.5°F0.3°C 28.0°F-2.2°C 83% 1.3 mph NE2.1 kmh NE 3.4 mph5.5 kmh 29.97 in1014.9 mb 0.00 in0.0 mm 0.00 in0.0 mm 0.00 in0.0 mm
04:16 AM 32.4°F0.2°C 27.9°F-2.3°C 83% 0.4 mph E0.6 kmh E 1.8 mph2.9 kmh 29.96 in1014.6 mb 0.00 in0.0 mm 0.00 in0.0 mm 0.00 in0.0 mm
04:20 AM 32.5°F0.3°C 28.0°F-2.2°C 83% 0.4 mph NE0.6 kmh NE 1.8 mph2.9 kmh 29.96 in1014.6 mb 0.00 in0.0 mm 0.00 in0.0 mm 0.00 in0.0 mm
04:26 AM 32.5°F0.3°C 28.2°F-2.1°C 84% 2.2 mph NE3.5 kmh NE 5.4 mph8.7 kmh 29.96 in1014.6 mb 0.00 in0.0 mm 0.00 in0.0 mm 0.00 in0.0 mm
04:30 AM 32.4°F0.2°C 28.0°F-2.2°C 84% 3.8 mph ENE6.1 kmh ENE 5.6 mph9.0 kmh 29.95 in1014.2 mb 0.00 in0.0 mm 0.00 in0.0 mm 0.00 in0.0 mm
04:36 AM 32.4°F0.2°C 28.0°F-2.2°C 84% Calm Calm -- 29.95 in1014.2 mb 0.00 in0.0 mm 0.00 in0.0 mm 0.00 in0.0 mm
04:40 AM 32.4°F0.2°C 28.0°F-2.2°C 84% 0.2 mph NE0.3 kmh NE 1.6 mph2.6 kmh 29.95 in1014.2 mb 0.00 in0.0 mm 0.00 in0.0 mm 0.00 in0.0 mm
04:46 AM 32.5°F0.3°C 28.2°F-2.1°C 84% 1.3 mph NE2.1 kmh NE 2.5 mph4.0 kmh 29.94 in1013.9 mb 0.00 in0.0 mm 0.00 in0.0 mm 0.00 in0.0 mm
04:50 AM 32.7°F0.4°C 28.4°F-2.0°C 84% 0.9 mph NE1.4 kmh NE 1.8 mph2.9 kmh 29.93 in1013.5 mb 0.00 in0.0 mm 0.00 in0.0 mm 0.00 in0.0 mm
04:56 AM 32.5°F0.3°C 28.2°F-2.1°C 84% 1.3 mph NNE2.1 kmh NNE 2.5 mph4.0 kmh 29.94 in1013.9 mb 0.00 in0.0 mm 0.00 in0.0 mm 0.00 in0.0 mm
05:00 AM 32.9°F0.5°C 28.6°F-1.9°C 84% 1.1 mph E1.8 kmh E 3.4 mph5.5 kmh 29.94 in1013.9 mb 0.00 in0.0 mm 0.00 in0.0 mm 0.00 in0.0 mm
05:06 AM 32.7°F0.4°C 28.4°F-2.0°C 84% 1.6 mph ESE2.6 kmh ESE 3.1 mph5.0 kmh 29.94 in1013.9 mb 0.00 in0.0 mm 0.00 in0.0 mm 0.00 in0.0 mm
05:10 AM 32.7°F0.4°C 28.0°F-2.2°C 83% 0.9 mph E1.4 kmh E 2.2 mph3.5 kmh 29.95 in1014.2 mb 0.00 in0.0 mm 0.00 in0.0 mm 0.00 in0.0 mm
05:16 AM 32.9°F0.5°C 28.2°F-2.1°C 83% 1.6 mph E2.6 kmh E 3.6 mph5.8 kmh 29.94 in1013.9 mb 0.00 in0.0 mm 0.00 in0.0 mm 0.00 in0.0 mm
05:20 AM 32.7°F0.4°C 28.0°F-2.2°C 83% 2.2 mph NNE3.5 kmh NNE 6.3 mph10.1 kmh 29.94 in1013.9 mb 0.00 in0.0 mm 0.00 in0.0 mm 0.00 in0.0 mm
05:26 AM 32.7°F0.4°C 28.0°F-2.2°C 83% 0.4 mph N0.6 kmh N 1.8 mph2.9 kmh 29.94 in1013.9 mb 0.00 in0.0 mm 0.00 in0.0 mm 0.00 in0.0 mm
05:30 AM 32.7°F0.4°C 28.0°F-2.2°C 83% 0.7 mph NE1.1 kmh NE 2.5 mph4.0 kmh 29.94 in1013.9 mb 0.00 in0.0 mm 0.00 in0.0 mm 0.00 in0.0 mm
05:36 AM 32.5°F0.3°C 28.0°F-2.2°C 83% 0.7 mph NNE1.1 kmh NNE 2.9 mph4.7 kmh 29.93 in1013.5 mb 0.00 in0.0 mm 0.00 in0.0 mm 0.00 in0.0 mm
05:40 AM 32.7°F0.4°C 28.0°F-2.2°C 83% 1.1 mph SW1.8 kmh SW 2.0 mph3.2 kmh 29.93 in1013.5 mb 0.00 in0.0 mm 0.00 in0.0 mm 0.00 in0.0 mm
05:46 AM 32.7°F0.4°C 28.0°F-2.2°C 83% 0.4 mph NE0.6 kmh NE 1.8 mph2.9 kmh 29.93 in1013.5 mb 0.00 in0.0 mm 0.00 in0.0 mm 0.00 in0.0 mm
05:50 AM 32.7°F0.4°C 28.0°F-2.2°C 83% 1.1 mph 1.8 kmh 2.7 mph4.3 kmh 29.93 in1013.5 mb 0.00 in0.0 mm 0.00 in0.0 mm 0.00 in0.0 mm
05:56 AM 32.7°F0.4°C 28.0°F-2.2°C 83% 1.3 mph NE2.1 kmh NE 3.4 mph5.5 kmh 29.93 in1013.5 mb 0.00 in0.0 mm 0.00 in0.0 mm 0.00 in0.0 mm
06:00 AM 32.7°F0.4°C 28.0°F-2.2°C 83% 0.2 mph NE0.3 kmh NE 1.1 mph1.8 kmh 29.93 in1013.5 mb 0.00 in0.0 mm 0.00 in0.0 mm 0.00 in0.0 mm
06:06 AM 32.7°F0.4°C 28.4°F-2.0°C 84% 1.3 mph NE2.1 kmh NE 2.5 mph4.0 kmh 29.93 in1013.5 mb 0.00 in0.0 mm 0.00 in0.0 mm 0.00 in0.0 mm
06:10 AM 32.9°F0.5°C 28.2°F-2.1°C 83% 0.7 mph NE1.1 kmh NE 2.0 mph3.2 kmh 29.93 in1013.5 mb 0.00 in0.0 mm 0.00 in0.0 mm 0.00 in0.0 mm
06:16 AM 32.9°F0.5°C 28.2°F-2.1°C 83% 0.7 mph E1.1 kmh E 2.9 mph4.7 kmh 29.93 in1013.5 mb 0.00 in0.0 mm 0.00 in0.0 mm 0.00 in0.0 mm
06:20 AM 32.9°F0.5°C 28.2°F-2.1°C 83% 2.2 mph NW3.5 kmh NW 4.5 mph7.2 kmh 29.93 in1013.5 mb 0.00 in0.0 mm 0.00 in0.0 mm 0.00 in0.0 mm
06:26 AM 32.9°F0.5°C 28.2°F-2.1°C 83% Calm Calm -- 29.93 in1013.5 mb 0.00 in0.0 mm 0.00 in0.0 mm 0.00 in0.0 mm
06:30 AM 33.3°F0.7°C 28.6°F-1.9°C 83% 1.1 mph N1.8 kmh N 2.5 mph4.0 kmh 29.93 in1013.5 mb 0.00 in0.0 mm 0.00 in0.0 mm 0.00 in0.0 mm
06:36 AM 33.1°F0.6°C 28.4°F-2.0°C 83% 0.7 mph NNE1.1 kmh NNE 1.6 mph2.6 kmh 29.93 in1013.5 mb 0.00 in0.0 mm 0.00 in0.0 mm 0.00 in0.0 mm
06:40 AM 32.9°F0.5°C 28.2°F-2.1°C 83% 0.9 mph E1.4 kmh E 2.7 mph4.3 kmh 29.93 in1013.5 mb 0.00 in0.0 mm 0.00 in0.0 mm 0.00 in0.0 mm
06:46 AM 33.1°F0.6°C 28.4°F-2.0°C 83% 1.1 mph NNW1.8 kmh NNW 2.2 mph3.5 kmh 29.93 in1013.5 mb 0.00 in0.0 mm 0.00 in0.0 mm 0.00 in0.0 mm
06:50 AM 32.9°F0.5°C 28.2°F-2.1°C 83% 0.9 mph NNE1.4 kmh NNE 2.0 mph3.2 kmh 29.92 in1013.2 mb 0.00 in0.0 mm 0.00 in0.0 mm 0.00 in0.0 mm
06:56 AM 33.1°F0.6°C 28.4°F-2.0°C 83% 1.1 mph N1.8 kmh N 2.2 mph3.5 kmh 29.92 in1013.2 mb 0.00 in0.0 mm 0.00 in0.0 mm 0.00 in0.0 mm
07:00 AM 33.3°F0.7°C 28.9°F-1.7°C 84% 1.6 mph ENE2.6 kmh ENE 3.6 mph5.8 kmh 29.92 in1013.2 mb 0.00 in0.0 mm 0.00 in0.0 mm 0.00 in0.0 mm
07:06 AM 33.1°F0.6°C 28.8°F-1.8°C 84% 0.2 mph NE0.3 kmh NE 2.0 mph3.2 kmh 29.92 in1013.2 mb 0.00 in0.0 mm 0.00 in0.0 mm 0.00 in0.0 mm
07:10 AM 33.4°F0.8°C 29.1°F-1.6°C 84% 0.9 mph NE1.4 kmh NE 2.7 mph4.3 kmh 29.92 in1013.2 mb 0.00 in0.0 mm 0.00 in0.0 mm 0.00 in0.0 mm
07:16 AM 33.4°F0.8°C 29.1°F-1.6°C 84% 0.4 mph E0.6 kmh E 1.8 mph2.9 kmh 29.92 in1013.2 mb 0.00 in0.0 mm 0.00 in0.0 mm 0.00 in0.0 mm
07:20 AM 33.4°F0.8°C 29.1°F-1.6°C 84% 1.8 mph NE2.9 kmh NE 3.4 mph5.5 kmh 29.91 in1012.9 mb 0.00 in0.0 mm 0.00 in0.0 mm 0.00 in0.0 mm
07:26 AM 33.6°F0.9°C 29.3°F-1.5°C 84% 0.7 mph NE1.1 kmh NE 2.5 mph4.0 kmh 29.91 in1012.9 mb 0.00 in0.0 mm 0.00 in0.0 mm 0.00 in0.0 mm
07:30 AM 33.6°F0.9°C 29.3°F-1.5°C 84% 1.6 mph N2.6 kmh N 3.8 mph6.1 kmh 29.91 in1012.9 mb 0.00 in0.0 mm 0.00 in0.0 mm 0.00 in0.0 mm
07:36 AM 33.8°F1.0°C 29.5°F-1.4°C 84% 1.8 mph NE2.9 kmh NE 4.3 mph6.9 kmh 29.91 in1012.9 mb 0.00 in0.0 mm 0.00 in0.0 mm 0.00 in0.0 mm
07:40 AM 33.8°F1.0°C 29.5°F-1.4°C 84% Calm Calm 1.8 mph2.9 kmh 29.91 in1012.9 mb 0.00 in0.0 mm 0.00 in0.0 mm 0.00 in0.0 mm
07:46 AM 34.0°F1.1°C 29.7°F-1.3°C 84% 1.8 mph NE2.9 kmh NE 2.9 mph4.7 kmh 29.91 in1012.9 mb 0.00 in0.0 mm 0.00 in0.0 mm 0.00 in0.0 mm
07:50 AM 34.0°F1.1°C 29.7°F-1.3°C 84% 1.6 mph ENE2.6 kmh ENE 4.9 mph7.9 kmh 29.91 in1012.9 mb 0.00 in0.0 mm 0.00 in0.0 mm 0.00 in0.0 mm
07:56 AM 34.2°F1.2°C 29.8°F-1.2°C 84% 1.1 mph NE1.8 kmh NE 3.1 mph5.0 kmh 29.90 in1012.5 mb 0.00 in0.0 mm 0.00 in0.0 mm 0.00 in0.0 mm
08:00 AM 34.2°F1.2°C 29.8°F-1.2°C 84% 1.6 mph ENE2.6 kmh ENE 3.6 mph5.8 kmh 29.90 in1012.5 mb 0.00 in0.0 mm 0.00 in0.0 mm 0.00 in0.0 mm
08:06 AM 34.5°F1.4°C 30.2°F-1.0°C 84% 1.3 mph NNE2.1 kmh NNE 2.5 mph4.0 kmh 29.91 in1012.9 mb 0.00 in0.0 mm 0.00 in0.0 mm 0.00 in0.0 mm
08:10 AM 34.3°F1.3°C 30.0°F-1.1°C 84% 0.7 mph E1.1 kmh E 1.8 mph2.9 kmh 29.90 in1012.5 mb 0.00 in0.0 mm 0.00 in0.0 mm 0.00 in0.0 mm
08:16 AM 34.5°F1.4°C 30.2°F-1.0°C 84% 0.9 mph N1.4 kmh N 2.0 mph3.2 kmh 29.90 in1012.5 mb 0.00 in0.0 mm 0.00 in0.0 mm 0.00 in0.0 mm
08:20 AM 34.7°F1.5°C 30.4°F-0.9°C 84% 1.1 mph E1.8 kmh E 3.4 mph5.5 kmh 29.90 in1012.5 mb 0.00 in0.0 mm 0.00 in0.0 mm 0.00 in0.0 mm
08:26 AM 34.5°F1.4°C 30.2°F-1.0°C 84% 1.8 mph E2.9 kmh E 3.4 mph5.5 kmh 29.90 in1012.5 mb 0.00 in0.0 mm 0.00 in0.0 mm 0.00 in0.0 mm
08:30 AM 34.9°F1.6°C 30.6°F-0.8°C 84% 1.1 mph NNE1.8 kmh NNE 2.5 mph4.0 kmh 29.90 in1012.5 mb 0.00 in0.0 mm 0.00 in0.0 mm 0.00 in0.0 mm
08:36 AM 34.9°F1.6°C 30.6°F-0.8°C 84% 1.1 mph NE1.8 kmh NE 2.7 mph4.3 kmh 29.89 in1012.2 mb 0.00 in0.0 mm 0.00 in0.0 mm 0.00 in0.0 mm
08:40 AM 35.1°F1.7°C 30.9°F-0.6°C 85% 0.9 mph E1.4 kmh E 3.6 mph5.8 kmh 29.89 in1012.2 mb 0.00 in0.0 mm 0.00 in0.0 mm 0.00 in0.0 mm
08:46 AM 35.2°F1.8°C 31.5°F-0.3°C 86% 0.9 mph N1.4 kmh N 1.8 mph2.9 kmh 29.88 in1011.9 mb 0.00 in0.0 mm 0.00 in0.0 mm 0.00 in0.0 mm
08:50 AM 35.1°F1.7°C 31.8°F-0.1°C 88% 1.8 mph N2.9 kmh N 2.9 mph4.7 kmh 29.88 in1011.9 mb 0.00 in0.0 mm 0.00 in0.0 mm 0.00 in0.0 mm
08:56 AM 35.2°F1.8°C 32.4°F0.2°C 89% 2.7 mph NE4.3 kmh NE 4.7 mph7.6 kmh 29.88 in1011.9 mb 0.00 in0.0 mm 0.00 in0.0 mm 0.00 in0.0 mm
09:00 AM 35.2°F1.8°C 32.5°F0.3°C 90% 1.8 mph NE2.9 kmh NE 3.1 mph5.0 kmh 29.88 in1011.9 mb 0.00 in0.0 mm 0.00 in0.0 mm 0.00 in0.0 mm
09:06 AM 35.4°F1.9°C 32.7°F0.4°C 90% 2.2 mph N3.5 kmh N 4.0 mph6.4 kmh 29.88 in1011.9 mb 0.00 in0.0 mm 0.00 in0.0 mm 0.00 in0.0 mm
09:10 AM 35.2°F1.8°C 32.5°F0.3°C 90% 0.4 mph N0.6 kmh N 1.8 mph2.9 kmh 29.87 in1011.5 mb 0.00 in0.0 mm 0.00 in0.0 mm 0.00 in0.0 mm
09:16 AM 35.2°F1.8°C 32.9°F0.5°C 91% 1.3 mph NNW2.1 kmh NNW 3.4 mph5.5 kmh 29.87 in1011.5 mb 0.00 in0.0 mm 0.00 in0.0 mm 0.00 in0.0 mm
09:20 AM 35.4°F1.9°C 33.1°F0.6°C 91% 0.7 mph NE1.1 kmh NE 2.5 mph4.0 kmh 29.87 in1011.5 mb 0.00 in0.0 mm 0.00 in0.0 mm 0.00 in0.0 mm
09:26 AM 35.2°F1.8°C 33.1°F0.6°C 92% 0.7 mph N1.1 kmh N 2.0 mph3.2 kmh 29.86 in1011.2 mb 0.00 in0.0 mm 0.00 in0.0 mm 0.00 in0.0 mm
09:30 AM 35.4°F1.9°C 33.3°F0.7°C 92% Calm Calm 1.1 mph1.8 kmh 29.86 in1011.2 mb 0.00 in0.0 mm 0.00 in0.0 mm 0.00 in0.0 mm
09:36 AM 35.2°F1.8°C 33.1°F0.6°C 92% 1.6 mph NNE2.6 kmh NNE 2.9 mph4.7 kmh 29.86 in1011.2 mb 0.00 in0.0 mm 0.00 in0.0 mm 0.00 in0.0 mm
09:40 AM 35.4°F1.9°C 33.3°F0.7°C 92% 0.2 mph NE0.3 kmh NE 1.6 mph2.6 kmh 29.86 in1011.2 mb 0.00 in0.0 mm 0.00 in0.0 mm 0.00 in0.0 mm
09:46 AM 35.4°F1.9°C 33.3°F0.7°C 92% 1.1 mph ENE1.8 kmh ENE 2.5 mph4.0 kmh 29.85 in1010.8 mb 0.00 in0.0 mm 0.00 in0.0 mm 0.00 in0.0 mm
09:50 AM 35.6°F2.0°C 33.4°F0.8°C 92% 2.0 mph N3.2 kmh N 3.8 mph6.1 kmh 29.85 in1010.8 mb 0.00 in0.0 mm 0.00 in0.0 mm 0.00 in0.0 mm
09:56 AM 36.0°F2.2°C 33.8°F1.0°C 92% 2.7 mph NE4.3 kmh NE 4.5 mph7.2 kmh 29.85 in1010.8 mb 0.00 in0.0 mm 0.00 in0.0 mm 0.00 in0.0 mm
10:00 AM 35.8°F2.1°C 33.6°F0.9°C 92% 1.6 mph NE2.6 kmh NE 2.9 mph4.7 kmh 29.85 in1010.8 mb 0.00 in0.0 mm 0.00 in0.0 mm 0.00 in0.0 mm
10:06 AM 35.8°F2.1°C 33.6°F0.9°C 92% 1.3 mph N2.1 kmh N 2.5 mph4.0 kmh 29.85 in1010.8 mb 0.00 in0.0 mm 0.00 in0.0 mm 0.00 in0.0 mm
10:10 AM 35.8°F2.1°C 33.6°F0.9°C 92% 1.3 mph 2.1 kmh 4.7 mph7.6 kmh 29.85 in1010.8 mb 0.00 in0.0 mm 0.00 in0.0 mm 0.00 in0.0 mm
10:16 AM 35.6°F2.0°C 33.4°F0.8°C 92% 1.6 mph N2.6 kmh N 4.5 mph7.2 kmh 29.85 in1010.8 mb 0.00 in0.0 mm 0.00 in0.0 mm 0.00 in0.0 mm
10:20 AM 35.8°F2.1°C 33.6°F0.9°C 92% 0.9 mph SW1.4 kmh SW 2.2 mph3.5 kmh 29.85 in1010.8 mb 0.00 in0.0 mm 0.00 in0.0 mm 0.00 in0.0 mm
10:26 AM 35.6°F2.0°C 33.4°F0.8°C 92% 1.3 mph NNE2.1 kmh NNE 2.9 mph4.7 kmh 29.84 in1010.5 mb 0.00 in0.0 mm 0.00 in0.0 mm 0.00 in0.0 mm
10:30 AM 35.8°F2.1°C 33.6°F0.9°C 92% 0.7 mph ENE1.1 kmh ENE 2.5 mph4.0 kmh 29.84 in1010.5 mb 0.00 in0.0 mm 0.00 in0.0 mm 0.00 in0.0 mm
10:36 AM 36.0°F2.2°C 33.8°F1.0°C 92% 0.4 mph ENE0.6 kmh ENE 1.6 mph2.6 kmh 29.84 in1010.5 mb 0.00 in0.0 mm 0.00 in0.0 mm 0.00 in0.0 mm
10:40 AM 36.0°F2.2°C 33.8°F1.0°C 92% 1.3 mph NW2.1 kmh NW 3.4 mph5.5 kmh 29.84 in1010.5 mb 0.00 in0.0 mm 0.00 in0.0 mm 0.00 in0.0 mm
10:46 AM 36.0°F2.2°C 33.8°F1.0°C 92% 2.5 mph NNE4.0 kmh NNE 5.6 mph9.0 kmh 29.83 in1010.2 mb 0.00 in0.0 mm 0.00 in0.0 mm 0.00 in0.0 mm
10:50 AM 36.1°F2.3°C 34.0°F1.1°C 92% 1.1 mph ESE1.8 kmh ESE 1.8 mph2.9 kmh 29.83 in1010.2 mb 0.00 in0.0 mm 0.00 in0.0 mm 0.00 in0.0 mm
10:56 AM 36.1°F2.3°C 34.0°F1.1°C 92% 1.6 mph NE2.6 kmh NE 3.4 mph5.5 kmh 29.83 in1010.2 mb 0.00 in0.0 mm 0.00 in0.0 mm 0.00 in0.0 mm
11:00 AM 36.1°F2.3°C 34.0°F1.1°C 92% 1.1 mph ENE1.8 kmh ENE 2.7 mph4.3 kmh 29.83 in1010.2 mb 0.00 in0.0 mm 0.00 in0.0 mm 0.00 in0.0 mm
11:06 AM 36.3°F2.4°C 34.7°F1.5°C 94% 1.8 mph N2.9 kmh N 2.7 mph4.3 kmh 29.83 in1010.2 mb 0.00 in0.0 mm 0.00 in0.0 mm 0.00 in0.0 mm
11:10 AM 36.3°F2.4°C 34.2°F1.2°C 92% 0.2 mph SE0.3 kmh SE 1.6 mph2.6 kmh 29.82 in1009.8 mb 0.00 in0.0 mm 0.00 in0.0 mm 0.00 in0.0 mm
11:16 AM 36.3°F2.4°C 34.2°F1.2°C 92% 1.8 mph NNE2.9 kmh NNE 3.6 mph5.8 kmh 29.81 in1009.5 mb 0.00 in0.0 mm 0.00 in0.0 mm 0.00 in0.0 mm
11:20 AM 36.3°F2.4°C 34.2°F1.2°C 92% 3.1 mph N5.0 kmh N 6.7 mph10.8 kmh 29.81 in1009.5 mb 0.00 in0.0 mm 0.00 in0.0 mm 0.00 in0.0 mm
11:26 AM 36.1°F2.3°C 34.5°F1.4°C 94% 2.9 mph NE4.7 kmh NE 6.3 mph10.1 kmh 29.80 in1009.1 mb 0.00 in0.0 mm 0.00 in0.0 mm 0.00 in0.0 mm
11:30 AM 36.1°F2.3°C 34.5°F1.4°C 94% 2.5 mph NE4.0 kmh NE 4.7 mph7.6 kmh 29.80 in1009.1 mb 0.00 in0.0 mm 0.00 in0.0 mm 0.00 in0.0 mm
11:36 AM 36.1°F2.3°C 34.5°F1.4°C 94% 0.4 mph NE0.6 kmh NE 1.6 mph2.6 kmh 29.79 in1008.8 mb 0.00 in0.0 mm 0.00 in0.0 mm 0.00 in0.0 mm
11:40 AM 36.3°F2.4°C 34.7°F1.5°C 94% 2.5 mph NE4.0 kmh NE 4.0 mph6.4 kmh 29.79 in1008.8 mb 0.00 in0.0 mm 0.00 in0.0 mm 0.00 in0.0 mm
11:46 AM 36.5°F2.5°C 34.9°F1.6°C 94% 1.6 mph NE2.6 kmh NE 2.2 mph3.5 kmh 29.79 in1008.8 mb 0.00 in0.0 mm 0.00 in0.0 mm 0.00 in0.0 mm
11:50 AM 36.5°F2.5°C 35.2°F1.8°C 95% 0.7 mph NE1.1 kmh NE 2.9 mph4.7 kmh 29.78 in1008.5 mb 0.00 in0.0 mm 0.00 in0.0 mm 0.00 in0.0 mm
11:56 AM 36.5°F2.5°C 34.9°F1.6°C 94% 1.8 mph E2.9 kmh E 3.4 mph5.5 kmh 29.78 in1008.5 mb 0.00 in0.0 mm 0.00 in0.0 mm 0.00 in0.0 mm
12:00 PM 36.9°F2.7°C 35.6°F2.0°C 95% 2.0 mph NE3.2 kmh NE 3.8 mph6.1 kmh 29.78 in1008.5 mb 0.00 in0.0 mm 0.00 in0.0 mm 0.00 in0.0 mm
12:06 PM 37.0°F2.8°C 35.4°F1.9°C 94% 1.3 mph NNE2.1 kmh NNE 2.5 mph4.0 kmh 29.78 in1008.5 mb 0.00 in0.0 mm 0.00 in0.0 mm 0.00 in0.0 mm
12:10 PM 37.2°F2.9°C 35.6°F2.0°C 94% 1.6 mph NNE2.6 kmh NNE 4.0 mph6.4 kmh 29.78 in1008.5 mb 0.00 in0.0 mm 0.00 in0.0 mm 0.00 in0.0 mm
12:16 PM 37.2°F2.9°C 35.6°F2.0°C 94% 1.3 mph NE2.1 kmh NE 2.7 mph4.3 kmh 29.77 in1008.1 mb 0.00 in0.0 mm 0.00 in0.0 mm 0.00 in0.0 mm
12:20 PM 37.4°F3.0°C 35.8°F2.1°C 94% 2.5 mph ENE4.0 kmh ENE 4.0 mph6.4 kmh 29.77 in1008.1 mb 0.00 in0.0 mm 0.00 in0.0 mm 0.00 in0.0 mm
12:26 PM 37.4°F3.0°C 35.8°F2.1°C 94% 1.3 mph N2.1 kmh N 3.1 mph5.0 kmh 29.77 in1008.1 mb 0.00 in0.0 mm 0.00 in0.0 mm 0.00 in0.0 mm
12:30 PM 37.4°F3.0°C 35.8°F2.1°C 94% 2.7 mph NNE4.3 kmh NNE 5.8 mph9.3 kmh 29.77 in1008.1 mb 0.00 in0.0 mm 0.00 in0.0 mm 0.00 in0.0 mm
12:36 PM 37.6°F3.1°C 35.4°F1.9°C 92% 3.1 mph NNE5.0 kmh NNE 6.3 mph10.1 kmh 29.76 in1007.8 mb 0.00 in0.0 mm 0.00 in0.0 mm 0.00 in0.0 mm
12:40 PM 37.6°F3.1°C 35.4°F1.9°C 92% 2.5 mph E4.0 kmh E 4.3 mph6.9 kmh 29.75 in1007.5 mb 0.00 in0.0 mm 0.00 in0.0 mm 0.00 in0.0 mm
12:46 PM 37.8°F3.2°C 35.6°F2.0°C 92% 3.4 mph NE5.5 kmh NE 4.7 mph7.6 kmh 29.75 in1007.5 mb 0.00 in0.0 mm 0.00 in0.0 mm 0.00 in0.0 mm
12:50 PM 37.9°F3.3°C 35.8°F2.1°C 92% 1.6 mph NE2.6 kmh NE 3.4 mph5.5 kmh 29.75 in1007.5 mb 0.00 in0.0 mm 0.00 in0.0 mm 0.00 in0.0 mm
12:56 PM 37.9°F3.3°C 35.8°F2.1°C 92% 1.6 mph NE2.6 kmh NE 4.0 mph6.4 kmh 29.75 in1007.5 mb 0.00 in0.0 mm 0.00 in0.0 mm 0.00 in0.0 mm
01:00 PM 38.3°F3.5°C 36.1°F2.3°C 92% 1.8 mph NNE2.9 kmh NNE 5.6 mph9.0 kmh 29.74 in1007.1 mb 0.00 in0.0 mm 0.00 in0.0 mm 0.00 in0.0 mm
01:06 PM 38.1°F3.4°C 35.8°F2.1°C 91% 1.1 mph 1.8 kmh 2.7 mph4.3 kmh 29.74 in1007.1 mb 0.00 in0.0 mm 0.00 in0.0 mm 0.00 in0.0 mm
01:10 PM 38.3°F3.5°C 36.0°F2.2°C 91% 1.6 mph N2.6 kmh N 3.6 mph5.8 kmh 29.74 in1007.1 mb 0.00 in0.0 mm 0.00 in0.0 mm 0.00 in0.0 mm
01:16 PM 38.7°F3.7°C 36.3°F2.4°C 91% 1.8 mph NNE2.9 kmh NNE 3.4 mph5.5 kmh 29.74 in1007.1 mb 0.00 in0.0 mm 0.00 in0.0 mm 0.00 in0.0 mm
01:20 PM 38.5°F3.6°C 36.1°F2.3°C 91% 2.7 mph NE4.3 kmh NE 6.7 mph10.8 kmh 29.74 in1007.1 mb 0.00 in0.0 mm 0.00 in0.0 mm 0.00 in0.0 mm
01:26 PM 38.7°F3.7°C 36.3°F2.4°C 91% 2.0 mph NNE3.2 kmh NNE 4.5 mph7.2 kmh 29.74 in1007.1 mb 0.00 in0.0 mm 0.00 in0.0 mm 0.00 in0.0 mm
01:30 PM 38.5°F3.6°C 36.1°F2.3°C 91% 1.3 mph N2.1 kmh N 3.6 mph5.8 kmh 29.73 in1006.8 mb 0.00 in0.0 mm 0.00 in0.0 mm 0.00 in0.0 mm
01:36 PM 38.8°F3.8°C 36.1°F2.3°C 90% 0.2 mph E0.3 kmh E 1.8 mph2.9 kmh 29.73 in1006.8 mb 0.00 in0.0 mm 0.00 in0.0 mm 0.00 in0.0 mm
01:40 PM 38.8°F3.8°C 36.1°F2.3°C 90% 1.6 mph NNW2.6 kmh NNW 3.8 mph6.1 kmh 29.73 in1006.8 mb 0.00 in0.0 mm 0.00 in0.0 mm 0.00 in0.0 mm
01:46 PM 39.2°F4.0°C 36.5°F2.5°C 90% 3.4 mph NNE5.5 kmh NNE 10.5 mph16.9 kmh 29.73 in1006.8 mb 0.00 in0.0 mm 0.00 in0.0 mm 0.00 in0.0 mm
01:50 PM 39.2°F4.0°C 36.5°F2.5°C 90% 1.8 mph E2.9 kmh E 3.8 mph6.1 kmh 29.73 in1006.8 mb 0.00 in0.0 mm 0.00 in0.0 mm 0.00 in0.0 mm
01:56 PM 39.6°F4.2°C 36.5°F2.5°C 89% 1.1 mph NNE1.8 kmh NNE 4.7 mph7.6 kmh 29.72 in1006.4 mb 0.00 in0.0 mm 0.00 in0.0 mm 0.00 in0.0 mm
02:00 PM 39.4°F4.1°C 36.7°F2.6°C 90% 1.6 mph NE2.6 kmh NE 4.3 mph6.9 kmh 29.73 in1006.8 mb 0.00 in0.0 mm 0.00 in0.0 mm 0.00 in0.0 mm
02:06 PM 39.7°F4.3°C 36.7°F2.6°C 89% 2.0 mph NE3.2 kmh NE 3.4 mph5.5 kmh 29.72 in1006.4 mb 0.00 in0.0 mm 0.00 in0.0 mm 0.00 in0.0 mm
02:10 PM 39.7°F4.3°C 36.7°F2.6°C 89% 2.2 mph NE3.5 kmh NE 4.7 mph7.6 kmh 29.72 in1006.4 mb 0.00 in0.0 mm 0.00 in0.0 mm 0.00 in0.0 mm
02:16 PM 39.6°F4.2°C 36.5°F2.5°C 89% 2.5 mph E4.0 kmh E 4.5 mph7.2 kmh 29.72 in1006.4 mb 0.00 in0.0 mm 0.00 in0.0 mm 0.00 in0.0 mm
02:20 PM 39.7°F4.3°C 36.7°F2.6°C 89% 0.9 mph ENE1.4 kmh ENE 2.7 mph4.3 kmh 29.72 in1006.4 mb 0.00 in0.0 mm 0.00 in0.0 mm 0.00 in0.0 mm
02:26 PM 39.9°F4.4°C 36.7°F2.6°C 88% 2.2 mph NNW3.5 kmh NNW 6.0 mph9.7 kmh 29.72 in1006.4 mb 0.00 in0.0 mm 0.00 in0.0 mm 0.00 in0.0 mm
02:30 PM 40.1°F4.5°C 36.9°F2.7°C 88% 1.6 mph N2.6 kmh N 3.4 mph5.5 kmh 29.72 in1006.4 mb 0.00 in0.0 mm 0.00 in0.0 mm 0.00 in0.0 mm
02:36 PM 40.1°F4.5°C 36.9°F2.7°C 88% 1.1 mph NNE1.8 kmh NNE 2.9 mph4.7 kmh 29.72 in1006.4 mb 0.00 in0.0 mm 0.00 in0.0 mm 0.00 in0.0 mm
02:40 PM 40.1°F4.5°C 36.9°F2.7°C 88% 0.9 mph NW1.4 kmh NW 2.2 mph3.5 kmh 29.72 in1006.4 mb 0.00 in0.0 mm 0.00 in0.0 mm 0.00 in0.0 mm
02:46 PM 40.1°F4.5°C 36.9°F2.7°C 88% 2.5 mph N4.0 kmh N 4.7 mph7.6 kmh 29.72 in1006.4 mb 0.00 in0.0 mm 0.00 in0.0 mm 0.00 in0.0 mm
02:50 PM 40.5°F4.7°C 36.7°F2.6°C 86% 1.1 mph NW1.8 kmh NW 2.7 mph4.3 kmh 29.72 in1006.4 mb 0.00 in0.0 mm 0.00 in0.0 mm 0.00 in0.0 mm
02:56 PM 40.3°F4.6°C 36.5°F2.5°C 86% 1.6 mph NE2.6 kmh NE 2.7 mph4.3 kmh 29.71 in1006.1 mb 0.00 in0.0 mm 0.00 in0.0 mm 0.00 in0.0 mm
03:00 PM 40.3°F4.6°C 36.5°F2.5°C 86% 1.6 mph E2.6 kmh E 4.5 mph7.2 kmh 29.71 in1006.1 mb 0.00 in0.0 mm 0.00 in0.0 mm 0.00 in0.0 mm
03:06 PM 40.6°F4.8°C 36.9°F2.7°C 86% 1.6 mph WNW2.6 kmh WNW 2.5 mph4.0 kmh 29.71 in1006.1 mb 0.00 in0.0 mm 0.00 in0.0 mm 0.00 in0.0 mm
03:10 PM 40.5°F4.7°C 36.7°F2.6°C 86% 1.3 mph NNE2.1 kmh NNE 3.4 mph5.5 kmh 29.71 in1006.1 mb 0.00 in0.0 mm 0.00 in0.0 mm 0.00 in0.0 mm
03:16 PM 40.5°F4.7°C 36.7°F2.6°C 86% 1.3 mph NNE2.1 kmh NNE 2.7 mph4.3 kmh 29.71 in1006.1 mb 0.00 in0.0 mm 0.00 in0.0 mm 0.00 in0.0 mm
03:20 PM 40.3°F4.6°C 36.1°F2.3°C 85% 0.9 mph NNW1.4 kmh NNW 3.6 mph5.8 kmh 29.71 in1006.1 mb 0.00 in0.0 mm 0.00 in0.0 mm 0.00 in0.0 mm
03:26 PM 40.3°F4.6°C 36.5°F2.5°C 86% 1.8 mph NE2.9 kmh NE 6.9 mph11.1 kmh 29.71 in1006.1 mb 0.00 in0.0 mm 0.00 in0.0 mm 0.00 in0.0 mm
03:30 PM 40.5°F4.7°C 36.7°F2.6°C 86% 0.9 mph NE1.4 kmh NE 2.7 mph4.3 kmh 29.70 in1005.8 mb 0.00 in0.0 mm 0.00 in0.0 mm 0.00 in0.0 mm
03:36 PM 40.3°F4.6°C 36.5°F2.5°C 86% 1.6 mph N2.6 kmh N 4.7 mph7.6 kmh 29.70 in1005.8 mb 0.00 in0.0 mm 0.00 in0.0 mm 0.00 in0.0 mm
03:40 PM 40.1°F4.5°C 36.3°F2.4°C 86% 1.3 mph NE2.1 kmh NE 4.7 mph7.6 kmh 29.70 in1005.8 mb 0.00 in0.0 mm 0.00 in0.0 mm 0.00 in0.0 mm
03:46 PM 40.3°F4.6°C 37.0°F2.8°C 88% 2.9 mph NNE4.7 kmh NNE 7.6 mph12.2 kmh 29.69 in1005.4 mb 0.00 in0.0 mm 0.01 in0.3 mm 0.00 in0.0 mm
03:50 PM 40.3°F4.6°C 37.0°F2.8°C 88% 1.8 mph NNW2.9 kmh NNW 4.5 mph7.2 kmh 29.70 in1005.8 mb 0.00 in0.0 mm 0.00 in0.0 mm 0.00 in0.0 mm
03:56 PM 40.1°F4.5°C 37.0°F2.8°C 89% 2.5 mph NW4.0 kmh NW 6.7 mph10.8 kmh 29.70 in1005.8 mb 0.00 in0.0 mm 0.00 in0.0 mm 0.00 in0.0 mm
04:00 PM 40.1°F4.5°C 37.0°F2.8°C 89% 0.7 mph N1.1 kmh N 2.7 mph4.3 kmh 29.70 in1005.8 mb 0.00 in0.0 mm 0.00 in0.0 mm 0.00 in0.0 mm
04:06 PM 39.6°F4.2°C 36.5°F2.5°C 89% 0.2 mph NE0.3 kmh NE 1.3 mph2.1 kmh 29.70 in1005.8 mb 0.00 in0.0 mm 0.00 in0.0 mm 0.00 in0.0 mm
04:10 PM 39.9°F4.4°C 37.2°F2.9°C 90% 0.4 mph W0.6 kmh W 1.8 mph2.9 kmh 29.70 in1005.8 mb 0.00 in0.0 mm 0.00 in0.0 mm 0.00 in0.0 mm
04:16 PM 39.6°F4.2°C 36.9°F2.7°C 90% 2.5 mph NNE4.0 kmh NNE 6.5 mph10.5 kmh 29.70 in1005.8 mb 0.00 in0.0 mm 0.00 in0.0 mm 0.00 in0.0 mm
04:20 PM 39.4°F4.1°C 36.7°F2.6°C 90% 1.6 mph N2.6 kmh N 3.8 mph6.1 kmh 29.70 in1005.8 mb 0.00 in0.0 mm 0.00 in0.0 mm 0.00 in0.0 mm
04:26 PM 39.2°F4.0°C 36.5°F2.5°C 90% 1.3 mph ENE2.1 kmh ENE 3.1 mph5.0 kmh 29.69 in1005.4 mb 0.00 in0.0 mm 0.00 in0.0 mm 0.00 in0.0 mm
04:30 PM 39.6°F4.2°C 36.9°F2.7°C 90% 0.2 mph NW0.3 kmh NW 1.6 mph2.6 kmh 29.69 in1005.4 mb 0.00 in0.0 mm 0.02 in0.5 mm 0.00 in0.0 mm
04:36 PM 39.4°F4.1°C 37.0°F2.8°C 91% 1.8 mph NNW2.9 kmh NNW 3.1 mph5.0 kmh 29.69 in1005.4 mb 0.00 in0.0 mm 0.00 in0.0 mm 0.00 in0.0 mm
04:40 PM 39.2°F4.0°C 36.9°F2.7°C 91% 1.8 mph NE2.9 kmh NE 4.3 mph6.9 kmh 29.69 in1005.4 mb 0.00 in0.0 mm 0.00 in0.0 mm 0.00 in0.0 mm
04:46 PM 39.2°F4.0°C 36.9°F2.7°C 91% 2.0 mph NNE3.2 kmh NNE 4.0 mph6.4 kmh 29.69 in1005.4 mb 0.00 in0.0 mm 0.00 in0.0 mm 0.00 in0.0 mm
04:50 PM 39.2°F4.0°C 36.9°F2.7°C 91% 1.6 mph NW2.6 kmh NW 2.7 mph4.3 kmh 29.69 in1005.4 mb 0.00 in0.0 mm 0.00 in0.0 mm 0.00 in0.0 mm
04:56 PM 39.0°F3.9°C 36.7°F2.6°C 91% 1.6 mph N2.6 kmh N 2.2 mph3.5 kmh 29.68 in1005.1 mb 0.00 in0.0 mm 0.00 in0.0 mm 0.00 in0.0 mm
05:00 PM 39.0°F3.9°C 36.7°F2.6°C 91% 1.1 mph N1.8 kmh N 3.1 mph5.0 kmh 29.68 in1005.1 mb 0.00 in0.0 mm 0.00 in0.0 mm 0.00 in0.0 mm
05:06 PM 39.0°F3.9°C 36.7°F2.6°C 91% 1.1 mph NW1.8 kmh NW 2.9 mph4.7 kmh 29.68 in1005.1 mb 0.00 in0.0 mm 0.00 in0.0 mm 0.00 in0.0 mm
05:10 PM 38.8°F3.8°C 36.5°F2.5°C 91% 2.0 mph N3.2 kmh N 4.3 mph6.9 kmh 29.68 in1005.1 mb 0.00 in0.0 mm 0.00 in0.0 mm 0.00 in0.0 mm
05:16 PM 38.8°F3.8°C 36.7°F2.6°C 92% 1.6 mph NW2.6 kmh NW 3.4 mph5.5 kmh 29.69 in1005.4 mb 0.00 in0.0 mm 0.00 in0.0 mm 0.00 in0.0 mm
05:20 PM 38.8°F3.8°C 36.7°F2.6°C 92% 2.0 mph N3.2 kmh N 4.5 mph7.2 kmh 29.69 in1005.4 mb 0.00 in0.0 mm 0.00 in0.0 mm 0.00 in0.0 mm
05:26 PM 38.8°F3.8°C 36.7°F2.6°C 92% 0.4 mph NW0.6 kmh NW 1.6 mph2.6 kmh 29.69 in1005.4 mb 0.00 in0.0 mm 0.00 in0.0 mm 0.00 in0.0 mm
05:30 PM 38.8°F3.8°C 36.7°F2.6°C 92% 0.2 mph NW0.3 kmh NW 2.7 mph4.3 kmh 29.69 in1005.4 mb 0.00 in0.0 mm 0.00 in0.0 mm 0.00 in0.0 mm
05:36 PM 38.8°F3.8°C 36.7°F2.6°C 92% Calm Calm -- 29.69 in1005.4 mb 0.00 in0.0 mm 0.00 in0.0 mm 0.00 in0.0 mm
05:40 PM 38.8°F3.8°C 36.7°F2.6°C 92% 1.1 mph NW1.8 kmh NW 2.0 mph3.2 kmh 29.69 in1005.4 mb 0.00 in0.0 mm 0.00 in0.0 mm 0.00 in0.0 mm
05:46 PM 38.8°F3.8°C 36.7°F2.6°C 92% 2.0 mph NW3.2 kmh NW 2.9 mph4.7 kmh 29.69 in1005.4 mb 0.00 in0.0 mm 0.00 in0.0 mm 0.00 in0.0 mm
05:50 PM 39.0°F3.9°C 36.9°F2.7°C 92% 0.2 mph NW0.3 kmh NW 1.8 mph2.9 kmh 29.68 in1005.1 mb 0.00 in0.0 mm 0.00 in0.0 mm 0.00 in0.0 mm
05:56 PM 38.7°F3.7°C 36.5°F2.5°C 92% 0.2 mph NW0.3 kmh NW 1.1 mph1.8 kmh 29.68 in1005.1 mb 0.00 in0.0 mm 0.00 in0.0 mm 0.00 in0.0 mm
06:00 PM 38.8°F3.8°C 36.7°F2.6°C 92% 0.2 mph NW0.3 kmh NW 1.3 mph2.1 kmh 29.68 in1005.1 mb 0.00 in0.0 mm 0.00 in0.0 mm 0.00 in0.0 mm
06:06 PM 38.5°F3.6°C 36.3°F2.4°C 92% 1.3 mph N2.1 kmh N 2.9 mph4.7 kmh 29.68 in1005.1 mb 0.00 in0.0 mm 0.00 in0.0 mm 0.00 in0.0 mm
06:10 PM 38.5°F3.6°C 36.3°F2.4°C 92% 0.4 mph NW0.6 kmh NW 1.8 mph2.9 kmh 29.68 in1005.1 mb 0.00 in0.0 mm 0.00 in0.0 mm 0.00 in0.0 mm
06:16 PM 38.7°F3.7°C 36.5°F2.5°C 92% 1.3 mph NW2.1 kmh NW 2.9 mph4.7 kmh 29.68 in1005.1 mb 0.00 in0.0 mm 0.00 in0.0 mm 0.00 in0.0 mm
06:20 PM 38.5°F3.6°C 36.3°F2.4°C 92% 1.8 mph WNW2.9 kmh WNW 2.7 mph4.3 kmh 29.68 in1005.1 mb 0.00 in0.0 mm 0.00 in0.0 mm 0.00 in0.0 mm
06:26 PM 38.5°F3.6°C 36.9°F2.7°C 94% 0.7 mph 1.1 kmh 2.7 mph4.3 kmh 29.68 in1005.1 mb 0.00 in0.0 mm 0.00 in0.0 mm 0.00 in0.0 mm
06:30 PM 38.7°F3.7°C 36.5°F2.5°C 92% 0.4 mph NNW0.6 kmh NNW 1.8 mph2.9 kmh 29.68 in1005.1 mb 0.00 in0.0 mm 0.00 in0.0 mm 0.00 in0.0 mm
06:36 PM 38.5°F3.6°C 36.9°F2.7°C 94% 0.2 mph NW0.3 kmh NW 1.3 mph2.1 kmh 29.68 in1005.1 mb 0.00 in0.0 mm 0.00 in0.0 mm 0.00 in0.0 mm
06:40 PM 38.5°F3.6°C 36.9°F2.7°C 94% 1.3 mph NW2.1 kmh NW 2.9 mph4.7 kmh 29.67 in1004.7 mb 0.00 in0.0 mm 0.00 in0.0 mm 0.00 in0.0 mm
06:46 PM 38.3°F3.5°C 36.7°F2.6°C 94% 0.2 mph NW0.3 kmh NW 1.1 mph1.8 kmh 29.67 in1004.7 mb 0.00 in0.0 mm 0.00 in0.0 mm 0.00 in0.0 mm
06:50 PM 38.3°F3.5°C 36.7°F2.6°C 94% 0.4 mph NNE0.6 kmh NNE 1.6 mph2.6 kmh 29.66 in1004.4 mb 0.00 in0.0 mm 0.00 in0.0 mm 0.00 in0.0 mm
06:56 PM 38.3°F3.5°C 36.7°F2.6°C 94% 0.2 mph NW0.3 kmh NW 1.6 mph2.6 kmh 29.67 in1004.7 mb 0.00 in0.0 mm 0.00 in0.0 mm 0.00 in0.0 mm
07:00 PM 38.1°F3.4°C 36.5°F2.5°C 94% 1.3 mph NW2.1 kmh NW 2.0 mph3.2 kmh 29.67 in1004.7 mb 0.00 in0.0 mm 0.00 in0.0 mm 0.00 in0.0 mm
07:06 PM 37.9°F3.3°C 36.7°F2.6°C 95% 0.9 mph NW1.4 kmh NW 2.2 mph3.5 kmh 29.67 in1004.7 mb 0.00 in0.0 mm 0.00 in0.0 mm 0.00 in0.0 mm
07:10 PM 38.1°F3.4°C 36.9°F2.7°C 95% 0.2 mph NW0.3 kmh NW 2.0 mph3.2 kmh 29.67 in1004.7 mb 0.00 in0.0 mm 0.00 in0.0 mm 0.00 in0.0 mm
07:16 PM 37.9°F3.3°C 36.7°F2.6°C 95% Calm Calm 1.1 mph1.8 kmh 29.67 in1004.7 mb 0.00 in0.0 mm 0.00 in0.0 mm 0.00 in0.0 mm
07:20 PM 37.9°F3.3°C 36.7°F2.6°C 95% 0.9 mph NW1.4 kmh NW 1.8 mph2.9 kmh 29.67 in1004.7 mb 0.00 in0.0 mm 0.00 in0.0 mm 0.00 in0.0 mm
07:26 PM 37.9°F3.3°C 36.7°F2.6°C 95% 0.9 mph NW1.4 kmh NW 1.3 mph2.1 kmh 29.67 in1004.7 mb 0.00 in0.0 mm 0.00 in0.0 mm 0.00 in0.0 mm
07:30 PM 37.8°F3.2°C 36.5°F2.5°C 95% 0.4 mph NW0.6 kmh NW 1.6 mph2.6 kmh 29.67 in1004.7 mb 0.00 in0.0 mm 0.00 in0.0 mm 0.00 in0.0 mm
07:36 PM 37.8°F3.2°C 36.5°F2.5°C 95% 2.0 mph NW3.2 kmh NW 2.9 mph4.7 kmh 29.67 in1004.7 mb 0.00 in0.0 mm 0.00 in0.0 mm 0.00 in0.0 mm
07:40 PM 37.8°F3.2°C 36.7°F2.6°C 96% 1.1 mph NW1.8 kmh NW 1.8 mph2.9 kmh 29.67 in1004.7 mb 0.00 in0.0 mm 0.00 in0.0 mm 0.00 in0.0 mm
07:46 PM 37.9°F3.3°C 36.9°F2.7°C 96% 1.6 mph NW2.6 kmh NW 2.2 mph3.5 kmh 29.68 in1005.1 mb 0.00 in0.0 mm 0.00 in0.0 mm 0.00 in0.0 mm
07:50 PM 37.8°F3.2°C 36.7°F2.6°C 96% 1.3 mph NW2.1 kmh NW 2.0 mph3.2 kmh 29.68 in1005.1 mb 0.00 in0.0 mm 0.00 in0.0 mm 0.00 in0.0 mm
07:56 PM 37.4°F3.0°C 36.3°F2.4°C 96% 0.4 mph NW0.6 kmh NW 1.6 mph2.6 kmh 29.68 in1005.1 mb 0.00 in0.0 mm 0.00 in0.0 mm 0.00 in0.0 mm
08:00 PM 37.6°F3.1°C 36.5°F2.5°C 96% 0.4 mph W0.6 kmh W 1.8 mph2.9 kmh 29.68 in1005.1 mb 0.00 in0.0 mm 0.00 in0.0 mm 0.00 in0.0 mm
08:06 PM 37.6°F3.1°C 36.5°F2.5°C 96% 0.7 mph WNW1.1 kmh WNW 1.6 mph2.6 kmh 29.68 in1005.1 mb 0.00 in0.0 mm 0.00 in0.0 mm 0.00 in0.0 mm
08:10 PM 37.6°F3.1°C 36.5°F2.5°C 96% 0.7 mph WNW1.1 kmh WNW 1.6 mph2.6 kmh 29.69 in1005.4 mb 0.00 in0.0 mm 0.00 in0.0 mm 0.00 in0.0 mm
08:16 PM 37.6°F3.1°C 36.9°F2.7°C 97% 1.1 mph NW1.8 kmh NW 1.6 mph2.6 kmh 29.68 in1005.1 mb 0.00 in0.0 mm 0.00 in0.0 mm 0.00 in0.0 mm
08:20 PM 37.4°F3.0°C 36.7°F2.6°C 97% Calm Calm -- 29.68 in1005.1 mb 0.00 in0.0 mm 0.00 in0.0 mm 0.00 in0.0 mm
08:26 PM 37.4°F3.0°C 36.7°F2.6°C 97% Calm Calm -- 29.68 in1005.1 mb 0.00 in0.0 mm 0.00 in0.0 mm 0.00 in0.0 mm
08:30 PM 37.4°F3.0°C 36.7°F2.6°C 97% 0.2 mph NW0.3 kmh NW 0.9 mph1.4 kmh 29.68 in1005.1 mb 0.00 in0.0 mm 0.00 in0.0 mm 0.00 in0.0 mm
08:36 PM 37.4°F3.0°C 36.7°F2.6°C 97% Calm Calm -- 29.68 in1005.1 mb 0.00 in0.0 mm 0.00 in0.0 mm 0.00 in0.0 mm
08:40 PM 37.4°F3.0°C 36.7°F2.6°C 97% Calm Calm -- 29.68 in1005.1 mb 0.00 in0.0 mm 0.00 in0.0 mm 0.00 in0.0 mm
08:46 PM 37.4°F3.0°C 36.7°F2.6°C 97% Calm Calm -- 29.68 in1005.1 mb 0.00 in0.0 mm 0.00 in0.0 mm 0.00 in0.0 mm
08:50 PM 37.4°F3.0°C 36.7°F2.6°C 97% 0.7 mph WNW1.1 kmh WNW 1.6 mph2.6 kmh 29.68 in1005.1 mb 0.00 in0.0 mm 0.00 in0.0 mm 0.00 in0.0 mm
08:56 PM 37.4°F3.0°C 36.7°F2.6°C 97% Calm Calm -- 29.68 in1005.1 mb 0.00 in0.0 mm 0.00 in0.0 mm 0.00 in0.0 mm
09:00 PM 37.4°F3.0°C 36.7°F2.6°C 97% Calm Calm -- 29.68 in1005.1 mb 0.00 in0.0 mm 0.00 in0.0 mm 0.00 in0.0 mm
09:06 PM 37.4°F3.0°C 36.7°F2.6°C 97% Calm Calm -- 29.68 in1005.1 mb 0.00 in0.0 mm 0.00 in0.0 mm 0.00 in0.0 mm
09:10 PM 37.2°F2.9°C 36.5°F2.5°C 97% Calm Calm 1.1 mph1.8 kmh 29.68 in1005.1 mb 0.00 in0.0 mm 0.00 in0.0 mm 0.00 in0.0 mm
09:16 PM 37.2°F2.9°C 36.5°F2.5°C 97% 0.2 mph N0.3 kmh N 1.8 mph2.9 kmh 29.68 in1005.1 mb 0.00 in0.0 mm 0.00 in0.0 mm 0.00 in0.0 mm
09:20 PM 37.0°F2.8°C 36.3°F2.4°C 97% 0.4 mph NW0.6 kmh NW 1.1 mph1.8 kmh 29.67 in1004.7 mb 0.00 in0.0 mm 0.00 in0.0 mm 0.00 in0.0 mm
09:26 PM 37.0°F2.8°C 36.3°F2.4°C 97% Calm Calm -- 29.67 in1004.7 mb 0.00 in0.0 mm 0.00 in0.0 mm 0.00 in0.0 mm
09:30 PM 37.2°F2.9°C 36.5°F2.5°C 97% Calm Calm -- 29.66 in1004.4 mb 0.00 in0.0 mm 0.00 in0.0 mm 0.00 in0.0 mm
09:36 PM 37.2°F2.9°C 36.5°F2.5°C 97% 0.2 mph N0.3 kmh N 1.6 mph2.6 kmh 29.66 in1004.4 mb 0.00 in0.0 mm 0.00 in0.0 mm 0.00 in0.0 mm
09:40 PM 37.0°F2.8°C 36.3°F2.4°C 97% 0.4 mph NNE0.6 kmh NNE 1.8 mph2.9 kmh 29.65 in1004.1 mb 0.00 in0.0 mm 0.00 in0.0 mm 0.00 in0.0 mm
09:46 PM 37.0°F2.8°C 36.3°F2.4°C 97% 0.7 mph N1.1 kmh N 2.0 mph3.2 kmh 29.64 in1003.7 mb 0.00 in0.0 mm 0.00 in0.0 mm 0.00 in0.0 mm
09:50 PM 37.0°F2.8°C 36.3°F2.4°C 97% 0.9 mph 1.4 kmh 2.9 mph4.7 kmh 29.64 in1003.7 mb 0.00 in0.0 mm 0.00 in0.0 mm 0.00 in0.0 mm
09:56 PM 37.0°F2.8°C 36.3°F2.4°C 97% 0.2 mph NW0.3 kmh NW 1.3 mph2.1 kmh 29.64 in1003.7 mb 0.00 in0.0 mm 0.00 in0.0 mm 0.00 in0.0 mm
10:00 PM 37.0°F2.8°C 36.3°F2.4°C 97% Calm Calm -- 29.64 in1003.7 mb 0.00 in0.0 mm 0.00 in0.0 mm 0.00 in0.0 mm
10:06 PM 36.9°F2.7°C 36.1°F2.3°C 97% Calm Calm -- 29.64 in1003.7 mb 0.00 in0.0 mm 0.00 in0.0 mm 0.00 in0.0 mm
10:10 PM 36.9°F2.7°C 36.1°F2.3°C 97% Calm Calm -- 29.64 in1003.7 mb 0.00 in0.0 mm 0.00 in0.0 mm 0.00 in0.0 mm
10:16 PM 36.9°F2.7°C 36.1°F2.3°C 97% 0.2 mph NW0.3 kmh NW 1.3 mph2.1 kmh 29.64 in1003.7 mb 0.00 in0.0 mm 0.00 in0.0 mm 0.00 in0.0 mm
10:20 PM 36.7°F2.6°C 36.0°F2.2°C 97% Calm Calm -- 29.64 in1003.7 mb 0.00 in0.0 mm 0.00 in0.0 mm 0.00 in0.0 mm
10:26 PM 36.7°F2.6°C 36.0°F2.2°C 97% 0.7 mph NW1.1 kmh NW 1.1 mph1.8 kmh 29.64 in1003.7 mb 0.00 in0.0 mm 0.00 in0.0 mm 0.00 in0.0 mm
10:30 PM 36.5°F2.5°C 35.8°F2.1°C 97% 0.4 mph NW0.6 kmh NW 1.3 mph2.1 kmh 29.64 in1003.7 mb 0.00 in0.0 mm 0.00 in0.0 mm 0.00 in0.0 mm
10:36 PM 36.7°F2.6°C 36.0°F2.2°C 97% 0.9 mph WNW1.4 kmh WNW 1.8 mph2.9 kmh 29.64 in1003.7 mb 0.00 in0.0 mm 0.00 in0.0 mm 0.00 in0.0 mm
10:40 PM 36.7°F2.6°C 36.0°F2.2°C 97% Calm Calm 1.1 mph1.8 kmh 29.64 in1003.7 mb 0.00 in0.0 mm 0.00 in0.0 mm 0.00 in0.0 mm
10:46 PM 36.7°F2.6°C 36.5°F2.5°C 99% 1.6 mph WNW2.6 kmh WNW 2.0 mph3.2 kmh 29.64 in1003.7 mb 0.00 in0.0 mm 0.00 in0.0 mm 0.00 in0.0 mm
10:50 PM 36.5°F2.5°C 36.3°F2.4°C 99% 2.0 mph W3.2 kmh W 2.5 mph4.0 kmh 29.65 in1004.1 mb 0.00 in0.0 mm 0.00 in0.0 mm 0.00 in0.0 mm
10:56 PM 36.5°F2.5°C 35.8°F2.1°C 97% 2.0 mph WNW3.2 kmh WNW 2.7 mph4.3 kmh 29.65 in1004.1 mb 0.00 in0.0 mm 0.00 in0.0 mm 0.00 in0.0 mm
11:00 PM 36.5°F2.5°C 36.3°F2.4°C 99% 1.3 mph NW2.1 kmh NW 2.7 mph4.3 kmh 29.65 in1004.1 mb 0.00 in0.0 mm 0.00 in0.0 mm 0.00 in0.0 mm
11:06 PM 36.5°F2.5°C 36.3°F2.4°C 99% 1.6 mph NW2.6 kmh NW 2.2 mph3.5 kmh 29.65 in1004.1 mb 0.00 in0.0 mm 0.00 in0.0 mm 0.00 in0.0 mm
11:10 PM 36.5°F2.5°C 36.3°F2.4°C 99% 1.3 mph NW2.1 kmh NW 2.0 mph3.2 kmh 29.65 in1004.1 mb 0.00 in0.0 mm 0.00 in0.0 mm 0.00 in0.0 mm
11:16 PM 36.5°F2.5°C 36.3°F2.4°C 99% 1.3 mph W2.1 kmh W 1.8 mph2.9 kmh 29.66 in1004.4 mb 0.00 in0.0 mm 0.00 in0.0 mm 0.00 in0.0 mm
11:20 PM 36.7°F2.6°C 36.5°F2.5°C 99% 2.0 mph WNW3.2 kmh WNW 2.9 mph4.7 kmh 29.67 in1004.7 mb 0.00 in0.0 mm 0.00 in0.0 mm 0.00 in0.0 mm
11:26 PM 36.7°F2.6°C 36.5°F2.5°C 99% 1.3 mph NW2.1 kmh NW 1.8 mph2.9 kmh 29.66 in1004.4 mb 0.00 in0.0 mm 0.00 in0.0 mm 0.00 in0.0 mm
11:30 PM 36.7°F2.6°C 36.5°F2.5°C 99% 0.4 mph WNW0.6 kmh WNW 1.6 mph2.6 kmh 29.67 in1004.7 mb 0.00 in0.0 mm 0.00 in0.0 mm 0.00 in0.0 mm
11:36 PM 36.7°F2.6°C 36.5°F2.5°C 99% 2.2 mph WNW3.5 kmh WNW 2.9 mph4.7 kmh 29.67 in1004.7 mb 0.00 in0.0 mm 0.00 in0.0 mm 0.00 in0.0 mm
11:40 PM 36.5°F2.5°C 36.3°F2.4°C 99% 1.6 mph WNW2.6 kmh WNW 2.2 mph3.5 kmh 29.67 in1004.7 mb 0.00 in0.0 mm 0.00 in0.0 mm 0.00 in0.0 mm
11:46 PM 36.5°F2.5°C 36.3°F2.4°C 99% 0.7 mph NW1.1 kmh NW 1.8 mph2.9 kmh 29.68 in1005.1 mb 0.00 in0.0 mm 0.00 in0.0 mm 0.00 in0.0 mm
11:50 PM 36.5°F2.5°C 36.3°F2.4°C 99% Calm Calm -- 29.68 in1005.1 mb 0.00 in0.0 mm 0.00 in0.0 mm 0.00 in0.0 mm
11:56 PM 36.5°F2.5°C 36.3°F2.4°C 99% Calm Calm -- 29.68 in1005.1 mb 0.00 in0.0 mm 0.00 in0.0 mm 0.00 in0.0 mm